createdAt,value
2019-05-22T00:02:35.505Z,9.28
2019-05-22T00:05:11.228Z,9.05
2019-05-22T00:07:36.274Z,7.83
2019-05-22T00:10:01.536Z,8.75
2019-05-22T00:12:25.437Z,8.55
2019-05-22T00:14:50.793Z,8.00
2019-05-22T00:17:15.423Z,8.88
2019-05-22T00:19:40.694Z,9.75
2019-05-22T00:22:07.465Z,9.80
2019-05-22T00:24:32.383Z,8.98
2019-05-22T00:26:55.885Z,9.40
2019-05-22T00:29:22.251Z,9.10
2019-05-22T00:31:46.067Z,8.70
2019-05-22T00:34:11.533Z,8.40
2019-05-22T00:36:35.414Z,10.05
2019-05-22T00:39:00.991Z,10.28
2019-05-22T00:41:25.020Z,11.53
2019-05-22T00:43:51.739Z,11.18
2019-05-22T00:46:19.916Z,10.25
2019-05-22T00:48:45.271Z,10.53
2019-05-22T00:51:11.154Z,11.70
2019-05-22T00:53:36.515Z,11.40
2019-05-22T00:56:05.813Z,11.20
2019-05-22T00:58:33.830Z,11.10
2019-05-22T01:01:04.396Z,10.90
2019-05-22T01:03:29.677Z,11.55
2019-05-22T01:05:54.981Z,12.05
2019-05-22T01:08:20.517Z,11.28
2019-05-22T01:10:47.988Z,10.88
2019-05-22T01:13:12.064Z,12.58
2019-05-22T01:15:37.620Z,12.80
2019-05-22T01:18:05.992Z,13.32
2019-05-22T01:20:30.404Z,12.30
2019-05-22T01:22:59.245Z,13.53
2019-05-22T01:25:24.611Z,13.13
2019-05-22T01:27:51.997Z,15.05
2019-05-22T01:30:19.401Z,13.22
2019-05-22T01:32:44.701Z,13.93
2019-05-22T01:35:10.222Z,15.00
2019-05-22T01:37:36.906Z,16.17
2019-05-22T01:40:05.378Z,15.68
2019-05-22T01:42:33.610Z,16.02
2019-05-22T01:45:06.245Z,15.35
2019-05-22T01:47:40.619Z,16.27
2019-05-22T01:50:06.718Z,15.88
2019-05-22T01:52:30.720Z,14.53
2019-05-22T01:54:55.511Z,15.60
2019-05-22T01:57:20.756Z,16.50
2019-05-22T01:59:45.229Z,15.75
2019-05-22T02:02:09.736Z,16.73
2019-05-22T02:04:34.443Z,15.18
2019-05-22T02:06:58.391Z,15.30
2019-05-22T02:09:31.505Z,17.17
2019-05-22T02:12:08.802Z,16.23
2019-05-22T02:14:32.878Z,14.63
2019-05-22T02:16:58.149Z,17.73
2019-05-22T02:19:22.631Z,16.48
2019-05-22T02:21:47.767Z,15.40
2019-05-22T02:24:11.843Z,15.40
2019-05-22T02:26:37.263Z,18.35
2019-05-22T02:29:02.801Z,16.42
2019-05-22T02:31:26.732Z,17.10
2019-05-22T02:34:07.236Z,17.62
2019-05-22T02:36:33.012Z,18.12
2019-05-22T02:38:57.414Z,17.27
2019-05-22T02:41:21.816Z,17.50
2019-05-22T02:43:45.584Z,17.32
2019-05-22T02:46:09.216Z,17.55
2019-05-22T02:48:33.153Z,18.40
2019-05-22T02:50:58.896Z,17.55
2019-05-22T02:53:23.539Z,16.07
2019-05-22T02:55:48.773Z,17.52
2019-05-22T02:58:13.232Z,18.50
2019-05-22T03:00:51.917Z,18.30
2019-05-22T03:03:15.477Z,15.63
2019-05-22T03:05:40.014Z,17.17
2019-05-22T03:08:04.307Z,18.70
2019-05-22T03:10:29.848Z,17.32
2019-05-22T03:12:53.907Z,16.48
2019-05-22T03:15:18.139Z,16.25
2019-05-22T03:17:43.596Z,17.00
2019-05-22T03:20:13.182Z,17.75
2019-05-22T03:23:01.159Z,17.77
2019-05-22T03:25:28.068Z,16.75
2019-05-22T03:27:52.949Z,16.65
2019-05-22T03:30:32.921Z,16.70
2019-05-22T03:32:57.123Z,17.60
2019-05-22T03:35:22.739Z,15.18
2019-05-22T03:37:47.643Z,17.30
2019-05-22T03:40:12.817Z,15.45
2019-05-22T03:42:37.554Z,16.73
2019-05-22T03:45:02.368Z,16.10
2019-05-22T03:47:26.874Z,17.77
2019-05-22T03:49:51.062Z,15.23
2019-05-22T03:52:16.647Z,15.58
2019-05-22T03:54:42.082Z,14.95
2019-05-22T03:57:06.951Z,16.60
2019-05-22T03:59:30.583Z,17.45
2019-05-22T04:01:55.807Z,17.40
2019-05-22T04:04:34.467Z,16.23
2019-05-22T04:06:58.330Z,15.93
2019-05-22T04:09:23.798Z,15.63
2019-05-22T04:11:47.698Z,15.03
2019-05-22T04:14:11.828Z,14.13
2019-05-22T04:16:35.822Z,14.00
2019-05-22T04:19:00.742Z,13.13
2019-05-22T04:21:25.063Z,14.43
2019-05-22T04:23:48.687Z,11.70
2019-05-22T04:26:13.990Z,12.68
2019-05-22T04:28:50.096Z,12.85
2019-05-22T04:31:13.772Z,12.35
2019-05-22T04:33:37.639Z,13.05
2019-05-22T04:36:04.862Z,11.53
2019-05-22T04:38:29.032Z,12.05
2019-05-22T04:40:54.486Z,11.78
2019-05-22T04:43:20.830Z,11.53
2019-05-22T04:45:45.064Z,11.33
2019-05-22T04:48:08.740Z,11.95
2019-05-22T04:50:32.501Z,11.20
2019-05-22T04:52:56.674Z,11.33
2019-05-22T04:55:21.132Z,10.40
2019-05-22T04:57:44.688Z,10.30
2019-05-22T05:00:10.859Z,10.10
2019-05-22T05:02:34.648Z,11.05
2019-05-22T05:04:59.354Z,10.50
2019-05-22T05:07:24.133Z,10.82
2019-05-22T05:09:47.688Z,10.50
2019-05-22T05:12:11.549Z,11.00
2019-05-22T05:14:35.740Z,11.10
2019-05-22T05:16:59.307Z,10.80
2019-05-22T05:19:23.225Z,13.48
2019-05-22T05:21:47.005Z,10.63
2019-05-22T05:24:10.978Z,11.28
2019-05-22T05:26:36.169Z,9.70
2019-05-22T05:29:00.253Z,9.90
2019-05-22T05:31:24.063Z,10.90
2019-05-22T05:33:59.478Z,9.58
2019-05-22T05:36:23.311Z,9.93
2019-05-22T05:38:47.177Z,9.88
2019-05-22T05:41:10.877Z,11.03
2019-05-22T05:43:35.064Z,9.35
2019-05-22T05:45:58.707Z,9.55
2019-05-22T05:48:24.080Z,8.75
2019-05-22T05:51:08.885Z,8.98
2019-05-22T05:53:37.149Z,7.92
2019-05-22T05:56:13.732Z,6.92
2019-05-22T05:58:38.504Z,7.33
2019-05-22T06:01:07.725Z,7.37
2019-05-22T06:03:38.625Z,6.17
2019-05-22T06:06:05.537Z,6.30
2019-05-22T06:08:29.305Z,6.53
2019-05-22T06:10:55.989Z,5.45
2019-05-22T06:13:20.338Z,5.17
2019-05-22T06:16:05.437Z,5.17
2019-05-22T06:18:34.980Z,5.92
2019-05-22T06:21:03.782Z,5.37
2019-05-22T06:23:32.066Z,4.72
2019-05-22T06:25:58.352Z,5.10
2019-05-22T06:28:23.290Z,5.40
2019-05-22T06:30:47.574Z,4.72
2019-05-22T06:33:19.925Z,4.40
2019-05-22T06:35:45.570Z,4.20
2019-05-22T06:38:15.032Z,4.15
2019-05-22T06:40:38.976Z,4.08
2019-05-22T06:43:25.266Z,3.90
2019-05-22T06:45:48.901Z,4.28
2019-05-22T06:48:12.778Z,4.30
2019-05-22T06:50:36.374Z,4.40
2019-05-22T06:53:09.349Z,3.87
2019-05-22T06:55:25.767Z,4.33
2019-05-22T06:57:49.294Z,5.00
2019-05-22T07:00:15.439Z,6.08
2019-05-22T07:02:39.223Z,4.85
2019-05-22T07:05:03.642Z,5.05
2019-05-22T07:07:27.728Z,4.78
2019-05-22T07:09:52.644Z,5.28
2019-05-22T07:12:20.062Z,5.60
2019-05-22T07:14:49.427Z,6.58
2019-05-22T07:17:15.224Z,6.47
2019-05-22T07:19:39.876Z,6.20
2019-05-22T07:22:04.672Z,6.95
2019-05-22T07:24:29.340Z,6.22
2019-05-22T07:26:53.709Z,6.95
2019-05-22T07:29:17.962Z,6.78
2019-05-22T07:31:42.066Z,7.40
2019-05-22T07:34:06.564Z,6.65
2019-05-22T07:36:32.984Z,6.78
2019-05-22T07:38:56.679Z,6.60
2019-05-22T07:41:20.579Z,7.40
2019-05-22T07:43:44.280Z,7.90
2019-05-22T07:46:07.870Z,7.60
2019-05-22T07:48:31.610Z,7.72
2019-05-22T07:50:56.829Z,8.30
2019-05-22T07:53:20.529Z,7.75
2019-05-22T07:55:44.619Z,7.10
2019-05-22T07:58:16.387Z,7.90
2019-05-22T08:00:48.376Z,7.90
2019-05-22T08:03:12.630Z,7.75
2019-05-22T08:05:39.474Z,8.53
2019-05-22T08:08:04.142Z,10.00
2019-05-22T08:10:28.198Z,8.65
2019-05-22T08:12:52.628Z,8.70
2019-05-22T08:15:18.042Z,8.95
2019-05-22T08:17:42.205Z,9.05
2019-05-22T08:20:06.472Z,7.62
2019-05-22T08:22:30.632Z,8.28
2019-05-22T08:24:54.422Z,7.85
2019-05-22T08:27:19.872Z,9.88
2019-05-22T08:29:43.537Z,8.15
2019-05-22T08:32:08.293Z,10.60
2019-05-22T08:34:32.279Z,8.58
2019-05-22T08:36:56.333Z,8.15
2019-05-22T08:39:20.600Z,7.42
2019-05-22T08:41:44.429Z,7.78
2019-05-22T08:44:17.589Z,8.00
2019-05-22T08:46:34.701Z,7.22
2019-05-22T08:48:58.308Z,9.80
2019-05-22T08:51:22.129Z,8.05
2019-05-22T08:53:48.618Z,7.92
2019-05-22T08:56:13.271Z,7.10
2019-05-22T08:58:39.405Z,7.80
2019-05-22T09:01:03.777Z,8.13
2019-05-22T09:03:27.825Z,7.53
2019-05-22T09:05:52.163Z,7.78
2019-05-22T09:08:16.112Z,7.53
2019-05-22T09:10:39.716Z,7.37
2019-05-22T09:13:04.282Z,7.90
2019-05-22T09:15:29.266Z,7.62
2019-05-22T09:17:52.788Z,8.58
2019-05-22T09:20:17.248Z,7.50
2019-05-22T09:22:41.701Z,7.85
2019-05-22T09:25:10.119Z,7.22
2019-05-22T09:27:34.818Z,7.92
2019-05-22T09:29:58.340Z,7.60
2019-05-22T09:32:21.986Z,8.38
2019-05-22T09:34:46.533Z,7.62
2019-05-22T09:37:11.062Z,8.05
2019-05-22T09:39:34.641Z,8.08
2019-05-22T09:41:59.239Z,7.65
2019-05-22T09:44:22.888Z,7.83
2019-05-22T09:46:47.026Z,7.87
2019-05-22T09:49:11.224Z,7.45
2019-05-22T09:51:34.810Z,7.37
2019-05-22T09:53:58.874Z,8.20
2019-05-22T09:56:22.661Z,7.80
2019-05-22T09:58:47.036Z,10.10
2019-05-22T10:01:12.160Z,8.48
2019-05-22T10:03:36.547Z,7.92
2019-05-22T10:06:01.031Z,14.98
2019-05-22T10:08:24.684Z,19.77
2019-05-22T10:10:48.692Z,10.38
2019-05-22T10:13:12.549Z,9.48
2019-05-22T10:15:36.464Z,11.15
2019-05-22T10:18:01.026Z,7.37
2019-05-22T10:20:24.602Z,7.37
2019-05-22T10:22:48.163Z,7.67
2019-05-22T10:25:16.477Z,7.00
2019-05-22T10:27:39.290Z,6.45
2019-05-22T10:30:04.421Z,6.83
2019-05-22T10:32:32.346Z,7.20
2019-05-22T10:34:57.801Z,6.12
2019-05-22T10:37:22.044Z,6.70
2019-05-22T10:39:45.950Z,6.97
2019-05-22T10:42:09.731Z,7.15
2019-05-22T10:44:33.415Z,7.08
2019-05-22T10:46:57.292Z,6.70
2019-05-22T10:49:21.223Z,6.75
2019-05-22T10:51:45.154Z,6.60
2019-05-22T10:54:08.775Z,6.97
2019-05-22T10:56:32.872Z,7.00
2019-05-22T10:58:56.734Z,6.28
2019-05-22T11:01:21.041Z,7.58
2019-05-22T11:03:45.148Z,7.95
2019-05-22T11:06:08.905Z,7.40
2019-05-22T11:08:34.430Z,7.50
2019-05-22T11:10:58.191Z,6.65
2019-05-22T11:13:22.695Z,7.00
2019-05-22T11:15:46.637Z,6.80
2019-05-22T11:18:10.672Z,6.42
2019-05-22T11:20:35.703Z,7.33
2019-05-22T11:22:59.528Z,6.80
2019-05-22T11:25:23.367Z,7.15
2019-05-22T11:27:47.034Z,7.85
2019-05-22T11:30:16.354Z,6.97
2019-05-22T11:32:40.398Z,7.50
2019-05-22T11:35:05.595Z,6.33
2019-05-22T11:37:29.396Z,6.95
2019-05-22T11:39:52.945Z,7.40
2019-05-22T11:42:16.865Z,7.10
2019-05-22T11:44:40.929Z,6.92
2019-05-22T11:47:06.438Z,7.58
2019-05-22T11:49:29.995Z,8.23
2019-05-22T11:51:53.513Z,6.90
2019-05-22T11:54:17.159Z,7.45
2019-05-22T11:56:40.814Z,6.10
2019-05-22T11:59:05.977Z,6.55
2019-05-22T12:01:30.027Z,6.85
2019-05-22T12:03:54.207Z,7.10
2019-05-22T12:06:18.140Z,5.97
2019-05-22T12:08:42.529Z,7.60
2019-05-22T12:11:06.781Z,7.28
2019-05-22T12:13:31.732Z,6.58
2019-05-22T12:15:57.498Z,6.47
2019-05-22T12:18:21.777Z,6.62
2019-05-22T12:20:45.581Z,6.90
2019-05-22T12:23:09.419Z,6.65
2019-05-22T12:25:34.798Z,6.65
2019-05-22T12:27:59.048Z,6.55
2019-05-22T12:30:23.702Z,6.55
2019-05-22T12:32:47.235Z,5.83
2019-05-22T12:35:13.042Z,10.30
2019-05-22T12:37:36.843Z,10.50
2019-05-22T12:40:01.522Z,5.97
2019-05-22T12:42:26.370Z,11.25
2019-05-22T12:44:50.553Z,7.65
2019-05-22T12:47:15.714Z,8.13
2019-05-22T12:49:40.426Z,7.12
2019-05-22T12:52:05.459Z,7.08
2019-05-22T12:54:45.246Z,7.70
2019-05-22T12:56:55.856Z,8.25
2019-05-22T12:59:20.432Z,7.65
2019-05-22T13:01:46.630Z,7.62
2019-05-22T13:04:10.622Z,8.00
2019-05-22T13:06:35.082Z,7.58
2019-05-22T13:09:00.380Z,7.60
2019-05-22T13:11:25.256Z,7.10
2019-05-22T13:13:48.843Z,6.97
2019-05-22T13:16:13.655Z,7.60
2019-05-22T13:18:39.182Z,7.42
2019-05-22T13:21:03.865Z,7.53
2019-05-22T13:23:30.804Z,7.92
2019-05-22T13:25:54.870Z,6.75
2019-05-22T13:28:19.911Z,6.05
2019-05-22T13:30:46.777Z,6.58
2019-05-22T13:33:13.719Z,7.20
2019-05-22T13:35:37.321Z,6.35
2019-05-22T13:38:01.125Z,6.00
2019-05-22T13:40:27.967Z,5.30
2019-05-22T13:42:52.161Z,5.95
2019-05-22T13:45:28.841Z,4.97
2019-05-22T13:47:43.153Z,4.97
2019-05-22T13:50:09.351Z,5.67
2019-05-22T13:52:34.672Z,5.28
2019-05-22T13:54:58.599Z,5.97
2019-05-22T13:57:22.535Z,4.90
2019-05-22T13:59:46.357Z,4.97
2019-05-22T14:02:10.512Z,4.80
2019-05-22T14:04:34.396Z,4.95
2019-05-22T14:06:58.478Z,4.97
2019-05-22T14:09:22.730Z,4.55
2019-05-22T14:11:46.807Z,4.22
2019-05-22T14:14:10.857Z,4.55
2019-05-22T14:16:48.202Z,4.17
2019-05-22T14:19:00.664Z,4.47
2019-05-22T14:21:24.216Z,4.78
2019-05-22T14:23:47.739Z,5.05
2019-05-22T14:26:11.408Z,4.15
2019-05-22T14:28:37.149Z,5.20
2019-05-22T14:31:00.786Z,4.58
2019-05-22T14:33:27.964Z,4.87
2019-05-22T14:35:52.610Z,7.92
2019-05-22T14:38:16.631Z,5.65
2019-05-22T14:40:40.857Z,5.40
2019-05-22T14:43:04.371Z,6.05
2019-05-22T14:45:28.302Z,5.37
2019-05-22T14:47:52.497Z,5.95
2019-05-22T14:50:17.251Z,7.15
2019-05-22T14:52:40.881Z,5.72
2019-05-22T14:55:06.657Z,7.70
2019-05-22T14:57:30.321Z,6.15
2019-05-22T14:59:54.005Z,6.12
2019-05-22T15:02:18.311Z,7.17
2019-05-22T15:04:42.814Z,9.73
2019-05-22T15:07:07.888Z,10.78
2019-05-22T15:09:32.107Z,4.97
2019-05-22T15:11:55.771Z,5.28
2019-05-22T15:14:19.288Z,5.05
2019-05-22T15:16:42.955Z,4.95
2019-05-22T15:19:06.606Z,4.28
2019-05-22T15:21:30.625Z,4.15
2019-05-22T15:23:55.249Z,4.40
2019-05-22T15:26:18.832Z,7.58
2019-05-22T15:28:42.680Z,4.28
2019-05-22T15:31:06.309Z,4.12
2019-05-22T15:33:30.683Z,4.00
2019-05-22T15:35:54.749Z,3.92
2019-05-22T15:38:19.297Z,4.03
2019-05-22T15:40:43.333Z,3.95
2019-05-22T15:43:09.649Z,4.28
2019-05-22T15:45:35.554Z,4.17
2019-05-22T15:48:02.414Z,4.30
2019-05-22T15:50:28.947Z,3.95
2019-05-22T15:52:59.941Z,4.35
2019-05-22T15:55:26.584Z,4.37
2019-05-22T15:57:50.748Z,3.65
2019-05-22T16:00:19.234Z,4.55
2019-05-22T16:02:46.474Z,3.27
2019-05-22T16:05:12.807Z,4.22
2019-05-22T16:07:39.355Z,3.30
2019-05-22T16:10:03.964Z,3.75
2019-05-22T16:12:28.405Z,7.62
2019-05-22T16:14:53.336Z,5.65
2019-05-22T16:17:18.847Z,3.60
2019-05-22T16:19:43.918Z,4.55
2019-05-22T16:22:10.410Z,6.12
2019-05-22T16:24:35.833Z,4.35
2019-05-22T16:27:00.671Z,4.70
2019-05-22T16:29:25.601Z,6.00
2019-05-22T16:31:50.773Z,4.75
2019-05-22T16:34:15.524Z,4.75
2019-05-22T16:36:39.415Z,7.90
2019-05-22T16:39:04.455Z,5.95
2019-05-22T16:41:29.600Z,4.78
2019-05-22T16:43:54.668Z,5.12
2019-05-22T16:46:21.230Z,5.08
2019-05-22T16:48:48.250Z,4.60
2019-05-22T16:51:14.527Z,5.08
2019-05-22T16:53:38.706Z,5.08
2019-05-22T16:56:02.592Z,4.80
2019-05-22T16:58:28.118Z,4.33
2019-05-22T17:00:56.482Z,4.37
2019-05-22T17:03:19.159Z,4.60
2019-05-22T17:05:48.409Z,4.50
2019-05-22T17:08:17.238Z,4.95
2019-05-22T17:10:43.726Z,4.00
2019-05-22T17:13:12.256Z,4.08
2019-05-22T17:15:37.695Z,4.08
2019-05-22T17:18:06.078Z,4.50
2019-05-22T17:20:30.587Z,3.77
2019-05-22T17:22:54.979Z,3.65
2019-05-22T17:25:20.765Z,4.25
2019-05-22T17:27:45.697Z,4.15
2019-05-22T17:30:11.700Z,4.00
2019-05-22T17:32:35.706Z,4.08
2019-05-22T17:35:05.355Z,4.10
2019-05-22T17:37:31.829Z,4.10
2019-05-22T17:39:55.731Z,3.70
2019-05-22T17:42:23.559Z,3.52
2019-05-22T17:44:49.716Z,3.58
2019-05-22T17:47:13.545Z,4.00
2019-05-22T17:49:37.159Z,3.87
2019-05-22T17:52:02.286Z,3.65
2019-05-22T17:54:26.436Z,3.65
2019-05-22T17:56:50.984Z,3.35
2019-05-22T17:59:15.602Z,9.38
2019-05-22T18:01:40.367Z,4.10
2019-05-22T18:04:05.439Z,3.98
2019-05-22T18:06:32.287Z,3.58
2019-05-22T18:08:56.167Z,3.85
2019-05-22T18:11:20.080Z,4.78
2019-05-22T18:14:02.094Z,5.37
2019-05-22T18:16:26.174Z,4.10
2019-05-22T18:18:49.763Z,3.70
2019-05-22T18:21:13.789Z,3.80
2019-05-22T18:23:37.384Z,4.03
2019-05-22T18:26:01.337Z,3.30
2019-05-22T18:28:25.065Z,3.83
2019-05-22T18:30:48.837Z,3.70
2019-05-22T18:33:13.804Z,3.42
2019-05-22T18:35:37.404Z,3.40
2019-05-22T18:38:04.608Z,3.37
2019-05-22T18:40:28.637Z,3.37
2019-05-22T18:42:53.616Z,3.40
2019-05-22T18:45:20.571Z,3.40
2019-05-22T18:47:49.140Z,3.30
2019-05-22T18:50:14.409Z,3.55
2019-05-22T18:52:44.482Z,3.70
2019-05-22T18:55:12.034Z,3.50
2019-05-22T18:57:35.713Z,3.70
2019-05-22T19:00:03.849Z,4.03
2019-05-22T19:02:25.055Z,4.00
2019-05-22T19:04:48.558Z,4.10
2019-05-22T19:07:12.331Z,3.80
2019-05-22T19:09:36.007Z,3.60
2019-05-22T19:11:59.579Z,3.65
2019-05-22T19:14:23.509Z,3.70
2019-05-22T19:16:47.246Z,3.87
2019-05-22T19:19:10.889Z,3.75
2019-05-22T19:21:34.604Z,4.28
2019-05-22T19:23:58.405Z,4.03
2019-05-22T19:26:22.321Z,4.50
2019-05-22T19:28:46.475Z,4.53
2019-05-22T19:31:10.180Z,4.40
2019-05-22T19:33:33.997Z,4.60
2019-05-22T19:35:57.798Z,4.47
2019-05-22T19:38:22.920Z,4.08
2019-05-22T19:40:47.415Z,4.50
2019-05-22T19:43:11.862Z,4.28
2019-05-22T19:45:35.870Z,4.67
2019-05-22T19:48:00.079Z,5.42
2019-05-22T19:50:25.412Z,4.65
2019-05-22T19:52:49.232Z,5.28
2019-05-22T19:55:14.208Z,4.80
2019-05-22T19:57:38.231Z,4.83
2019-05-22T20:00:01.822Z,5.62
2019-05-22T20:02:26.831Z,5.47
2019-05-22T20:04:51.185Z,6.22
2019-05-22T20:07:17.656Z,5.83
2019-05-22T20:09:41.892Z,5.80
2019-05-22T20:12:07.463Z,6.95
2019-05-22T20:14:31.080Z,6.10
2019-05-22T20:16:55.100Z,5.22
2019-05-22T20:19:18.996Z,4.97
2019-05-22T20:21:42.953Z,4.58
2019-05-22T20:24:07.255Z,4.37
2019-05-22T20:26:30.959Z,9.15
2019-05-22T20:28:55.366Z,7.35
2019-05-22T20:31:19.096Z,4.40
2019-05-22T20:33:42.778Z,4.80
2019-05-22T20:36:07.617Z,4.85
2019-05-22T20:38:31.233Z,4.42
2019-05-22T20:40:54.726Z,4.30
2019-05-22T20:43:18.337Z,5.08
2019-05-22T20:45:43.064Z,5.03
2019-05-22T20:48:13.966Z,5.15
2019-05-22T20:50:38.411Z,5.28
2019-05-22T20:53:02.645Z,4.90
2019-05-22T20:55:26.865Z,5.92
2019-05-22T20:57:50.835Z,5.10
2019-05-22T21:00:16.703Z,5.00
2019-05-22T21:02:40.775Z,4.75
2019-05-22T21:05:07.339Z,4.45
2019-05-22T21:07:36.147Z,5.15
2019-05-22T21:10:00.086Z,4.40
2019-05-22T21:12:26.105Z,4.67
2019-05-22T21:14:50.205Z,4.50
2019-05-22T21:17:16.065Z,4.37
2019-05-22T21:19:41.446Z,4.50
2019-05-22T21:22:06.863Z,4.35
2019-05-22T21:24:31.007Z,4.67
2019-05-22T21:26:57.841Z,4.28
2019-05-22T21:29:21.638Z,4.22
2019-05-22T21:31:47.807Z,4.58
2019-05-22T21:34:11.506Z,5.55
2019-05-22T21:36:36.134Z,4.95
2019-05-22T21:39:00.531Z,4.75
2019-05-22T21:41:24.307Z,4.92
2019-05-22T21:43:48.441Z,4.30
2019-05-22T21:46:12.328Z,4.22
2019-05-22T21:48:36.363Z,4.20
2019-05-22T21:51:01.585Z,3.92
2019-05-22T21:53:26.272Z,4.40
2019-05-22T21:56:03.692Z,4.10
2019-05-22T21:58:16.459Z,4.05
2019-05-22T22:00:44.699Z,4.35
2019-05-22T22:03:10.384Z,4.15
2019-05-22T22:05:34.332Z,4.92
2019-05-22T22:07:58.503Z,7.00
2019-05-22T22:10:22.344Z,5.75
2019-05-22T22:12:48.140Z,6.22
2019-05-22T22:15:13.204Z,4.80
2019-05-22T22:17:37.050Z,4.83
2019-05-22T22:20:01.382Z,4.15
2019-05-22T22:22:27.197Z,4.17
2019-05-22T22:24:52.535Z,4.80
2019-05-22T22:27:17.385Z,4.40
2019-05-22T22:29:41.713Z,4.58
2019-05-22T22:32:10.446Z,6.03
2019-05-22T22:34:36.189Z,4.78
2019-05-22T22:37:00.301Z,4.80
2019-05-22T22:39:25.855Z,4.60
2019-05-22T22:41:51.060Z,4.55
2019-05-22T22:44:15.401Z,4.83
2019-05-22T22:46:41.775Z,5.80
2019-05-22T22:49:06.504Z,5.60
2019-05-22T22:51:31.574Z,5.15
2019-05-22T22:53:57.694Z,5.08
2019-05-22T22:56:22.496Z,4.87
2019-05-22T22:58:46.748Z,5.15
2019-05-22T23:01:15.069Z,4.60
2019-05-22T23:03:39.824Z,4.65
2019-05-22T23:06:03.774Z,5.10
2019-05-22T23:08:30.721Z,5.08
2019-05-22T23:10:54.962Z,4.67
2019-05-22T23:13:18.539Z,5.15
2019-05-22T23:15:42.140Z,5.22
2019-05-22T23:18:06.469Z,5.22
2019-05-22T23:20:29.147Z,5.03
2019-05-22T23:22:51.764Z,5.22
2019-05-22T23:25:17.294Z,4.33
2019-05-22T23:27:41.807Z,4.80
2019-05-22T23:30:10.933Z,4.62
2019-05-22T23:32:34.966Z,4.80
2019-05-22T23:34:59.625Z,4.55
2019-05-22T23:37:24.081Z,4.85
2019-05-22T23:39:48.388Z,4.28
2019-05-22T23:42:16.222Z,4.78
2019-05-22T23:44:41.266Z,4.42
2019-05-22T23:47:05.587Z,4.80
2019-05-22T23:49:30.558Z,4.37
2019-05-22T23:51:54.502Z,4.78
2019-05-22T23:54:18.517Z,5.30
2019-05-22T23:56:42.045Z,5.30
2019-05-22T23:59:06.677Z,4.90
